WetterOnline ( http://www.wetteronline.de )

Wetter aktuell Helgoland

Aktuelles Wetter: Helgoland/Düne (8m)

6-stündlich | Neueste Meldungen
Ortszeit Temperatur Wetter
So, 28.05. 8:00 15.4° C bedeckt
So, 28.05. 2:00 16.8° C leicht bewölkt
Sa, 27.05. 20:00 18.7° C wolkenlos
Sa, 27.05. 14:00 17.5° C wolkenlos
Ortszeit Temperatur Wetter
So, 28.05. 10:00 15.3° C leicht bewölkt
So, 28.05. 9:30 15.2° C bewölkt
So, 28.05. 9:00 15.1° C wolkig
So, 28.05. 8:30 14.7° C wolkig
So, 28.05. 8:00 15.4° C bedeckt
So, 28.05. 7:30 14.9° C bedeckt
Ortszeit Relative Feuchte Sichtweite
So, 28.05. 8:00 86% 15 km
So, 28.05. 2:00 78% 30 km
Sa, 27.05. 20:00 71% 27 km
Sa, 27.05. 14:00 75% 9 km
Ortszeit Relative Feuchte Sichtweite
So, 28.05. 10:00 87% 7 km
So, 28.05. 9:30 88% 9 km
So, 28.05. 9:00 89% 11 km
So, 28.05. 8:30 91% 14 km
So, 28.05. 8:00 86% 15 km
So, 28.05. 7:30 90% 19 km
Ortszeit Niederschlagsmenge Niederschlagsart
So, 28.05. 8:00 0.2 l/m2 in 12 Std. Regen
So, 28.05. 2:00 0,0 l/m2 in 6 Std. -
Sa, 27.05. 20:00 0,0 l/m2 in 12 Std. -
Sa, 27.05. 14:00 0,0 l/m2 in 6 Std. -
Ortszeit Niederschlagsmenge Niederschlagsart
So, 28.05. 10:00 0,0 l/m2 in 1 Std. -
So, 28.05. 9:30 keine Meldung -
So, 28.05. 9:00 0,0 l/m2 in 1 Std. -
So, 28.05. 8:30 keine Meldung -
So, 28.05. 8:00 0,0 l/m2 in 1 Std. Regen
So, 28.05. 7:30 keine Meldung -
Ortszeit Stärke Spitze Richtung
km/h Bft. km/h Grad Sektor
So, 28.05. 8:00 18 3 32 220° SW
So, 28.05. 2:00 26 4 39 220° SW
Sa, 27.05. 20:00 28 4 37 130° SO
Sa, 27.05. 14:00 24 4 30 100° O
Ortszeit Stärke Spitze Richtung
km/h Bft. km/h Grad Sektor
So, 28.05. 10:00 22 4 31 250° W
So, 28.05. 9:30 24 4 31 240° SW
So, 28.05. 9:00 26 4 31 230° SW
So, 28.05. 8:30 25 4 29 210° SW
So, 28.05. 8:00 18 3 25 220° SW
So, 28.05. 7:30 19 3 24 260° W
Ortszeit Untergrenze Bedeckung Gattung
total tief tief mittel hoch
So, 28.05. 8:00 5100 m 8/8 8/8 - - -
So, 28.05. 2:00 10500 m 3/8 0/8 - - -
Sa, 27.05. 20:00 - 0/8 0/8 - - -
Sa, 27.05. 14:00 - 0/8 0/8 - - -
Ortszeit Bedeckungsgrad in Achtel und Wolkenuntergrenze
So, 28.05. 10:00 2(5100m)
So, 28.05. 9:30 4(2700m) 8(5100m)
So, 28.05. 9:00 4(2700m) 7(5100m) 7(6000m)
So, 28.05. 8:30 1(2700m) 8(4800m) 8(6000m)
So, 28.05. 8:00 8(5100m) 8(6900m)
So, 28.05. 7:30 4(4200m) 8(5400m) 8(6900m)
Ortszeit Luftdruck NN (hPa) Tendenz (hPa in 3 Std.)
So, 28.05. 8:00 1016 + 0,4
So, 28.05. 2:00 1017 - 0,1
Sa, 27.05. 20:00 1017 - 1,3
Sa, 27.05. 14:00 1020 - 1,4
Ortszeit Luftdruck NN (hPa) Tendenz (hPa in 3 Std.)
So, 28.05. 10:00 1017 + 0,9
So, 28.05. 9:30 1017 + 0,8
So, 28.05. 9:00 1017 + 0,2
So, 28.05. 8:30 1017 + 0,9
So, 28.05. 8:00 1016 + 0,4
So, 28.05. 7:30 1015 - 0,6
Ortszeit Schneehöhe (cm)
So, 28.05. 8:00 -
So, 28.05. 2:00 -
Sa, 27.05. 20:00 -
Sa, 27.05. 14:00 -
Ortszeit Schneehöhe (cm)
So, 28.05. 10:00 -
So, 28.05. 9:30 -
So, 28.05. 9:00 -
So, 28.05. 8:30 -
So, 28.05. 8:00 -
So, 28.05. 7:30 -
Link zu dieser Seite / Seite empfehlen

Das Wetter in ...